sensor_id;sensor_type;location;lat;lon;timestamp;pressure;altitude;pressure_sealevel;temperature;humidity
27052;BME280;14601;49.358;8.256;2022-08-01T00:00:52;100373.59;;;23.27;53.54
27052;BME280;14601;49.358;8.256;2022-08-01T00:03:54;100378.41;;;23.25;53.09
27052;BME280;14601;49.358;8.256;2022-08-01T00:06:57;100374.63;;;23.19;53.42
27052;BME280;14601;49.358;8.256;2022-08-01T00:09:59;100385.94;;;23.16;53.68
27052;BME280;14601;49.358;8.256;2022-08-01T00:13:01;100382.81;;;23.06;54.41
27052;BME280;14601;49.358;8.256;2022-08-01T00:16:03;100393.28;;;23.09;54.18
27052;BME280;14601;49.358;8.256;2022-08-01T00:19:04;100386.97;;;23.02;54.19
27052;BME280;14601;49.358;8.256;2022-08-01T00:22:08;100391.78;;;23.00;54.39
27052;BME280;14601;49.358;8.256;2022-08-01T00:25:10;100393.03;;;22.91;54.64
27052;BME280;14601;49.358;8.256;2022-08-01T00:28:11;100397.81;;;22.89;54.94
27052;BME280;14601;49.358;8.256;2022-08-01T00:31:13;100396.75;;;22.83;54.85
27052;BME280;14601;49.358;8.256;2022-08-01T00:34:15;100391.47;;;22.75;55.49
27052;BME280;14601;49.358;8.256;2022-08-01T00:37:18;100394.81;;;22.70;55.59
27052;BME280;14601;49.358;8.256;2022-08-01T00:40:20;100397.09;;;22.67;56.19
27052;BME280;14601;49.358;8.256;2022-08-01T00:43:22;100396.25;;;22.60;56.19
27052;BME280;14601;49.358;8.256;2022-08-01T00:46:24;100397.91;;;22.54;56.45
27052;BME280;14601;49.358;8.256;2022-08-01T00:49:26;100398.53;;;22.50;56.70
27052;BME280;14601;49.358;8.256;2022-08-01T00:52:30;100400.16;;;22.44;56.79
27052;BME280;14601;49.358;8.256;2022-08-01T00:55:32;100402.84;;;22.37;57.12
27052;BME280;14601;49.358;8.256;2022-08-01T00:58:34;100410.81;;;22.32;57.20
27052;BME280;14601;49.358;8.256;2022-08-01T01:01:36;100405.53;;;22.31;57.69
27052;BME280;14601;49.358;8.256;2022-08-01T01:04:37;100409.25;;;22.23;57.86
27052;BME280;14601;49.358;8.256;2022-08-01T01:07:45;100400.47;;;22.21;57.75
27052;BME280;14601;49.358;8.256;2022-08-01T01:10:53;100399.66;;;22.27;58.45
27052;BME280;14601;49.358;8.256;2022-08-01T01:14:01;100405.09;;;22.27;58.58
27052;BME280;14601;49.358;8.256;2022-08-01T01:17:07;100407.63;;;22.29;58.83
27052;BME280;14601;49.358;8.256;2022-08-01T01:20:12;100413.06;;;22.29;58.58
27052;BME280;14601;49.358;8.256;2022-08-01T01:23:39;100404.22;;;22.20;57.98
27052;BME280;14601;49.358;8.256;2022-08-01T01:26:49;100408.94;;;22.11;58.55
27052;BME280;14601;49.358;8.256;2022-08-01T01:29:56;100418.56;;;22.07;58.65
27052;BME280;14601;49.358;8.256;2022-08-01T01:33:00;100426.47;;;22.02;58.92
27052;BME280;14601;49.358;8.256;2022-08-01T01:36:05;100433.16;;;22.00;59.29
27052;BME280;14601;49.358;8.256;2022-08-01T01:39:07;100416.19;;;21.97;59.54
27052;BME280;14601;49.358;8.256;2022-08-01T01:42:09;100423.06;;;21.93;59.74
27052;BME280;14601;49.358;8.256;2022-08-01T01:45:13;100415.97;;;21.92;59.67
27052;BME280;14601;49.358;8.256;2022-08-01T01:48:18;100432.81;;;21.81;60.13
27052;BME280;14601;49.358;8.256;2022-08-01T01:51:22;100428.16;;;21.75;59.95
27052;BME280;14601;49.358;8.256;2022-08-01T01:54:36;100421.44;;;21.71;60.54
27052;BME280;14601;49.358;8.256;2022-08-01T01:57:41;100429.34;;;21.66;61.22
27052;BME280;14601;49.358;8.256;2022-08-01T02:00:47;100425.78;;;21.65;61.08
27052;BME280;14601;49.358;8.256;2022-08-01T02:03:51;100430.19;;;21.66;61.90
27052;BME280;14601;49.358;8.256;2022-08-01T02:06:54;100426.25;;;21.69;61.53
27052;BME280;14601;49.358;8.256;2022-08-01T02:09:58;100428.59;;;21.79;61.34
27052;BME280;14601;49.358;8.256;2022-08-01T02:13:03;100428.88;;;21.84;61.52
27052;BME280;14601;49.358;8.256;2022-08-01T02:16:08;100431.00;;;21.88;61.53
27052;BME280;14601;49.358;8.256;2022-08-01T02:19:12;100433.88;;;21.80;62.21
27052;BME280;14601;49.358;8.256;2022-08-01T02:22:20;100417.84;;;21.64;62.55
27052;BME280;14601;49.358;8.256;2022-08-01T02:25:31;100428.31;;;21.67;62.79
27052;BME280;14601;49.358;8.256;2022-08-01T02:28:36;100429.31;;;21.59;63.22
27052;BME280;14601;49.358;8.256;2022-08-01T02:31:41;100438.03;;;21.55;63.69
27052;BME280;14601;49.358;8.256;2022-08-01T02:34:49;100433.63;;;21.54;63.25
27052;BME280;14601;49.358;8.256;2022-08-01T02:37:53;100439.72;;;21.56;63.51
27052;BME280;14601;49.358;8.256;2022-08-01T02:40:58;100431.72;;;21.47;63.96
27052;BME280;14601;49.358;8.256;2022-08-01T02:44:03;100430.47;;;21.50;63.83
27052;BME280;14601;49.358;8.256;2022-08-01T02:47:08;100431.28;;;21.51;63.96
27052;BME280;14601;49.358;8.256;2022-08-01T02:50:12;100427.28;;;21.46;63.77
27052;BME280;14601;49.358;8.256;2022-08-01T02:53:19;100422.69;;;21.47;63.76
27052;BME280;14601;49.358;8.256;2022-08-01T02:56:22;100423.34;;;21.49;63.72
27052;BME280;14601;49.358;8.256;2022-08-01T02:59:36;100430.41;;;21.43;64.08
27052;BME280;14601;49.358;8.256;2022-08-01T03:02:41;100424.53;;;21.40;64.40
27052;BME280;14601;49.358;8.256;2022-08-01T03:05:45;100429.06;;;21.33;64.58
27052;BME280;14601;49.358;8.256;2022-08-01T03:08:49;100430.00;;;21.46;64.04
27052;BME280;14601;49.358;8.256;2022-08-01T03:11:52;100423.41;;;21.34;64.41
27052;BME280;14601;49.358;8.256;2022-08-01T03:14:58;100417.34;;;21.32;64.65
27052;BME280;14601;49.358;8.256;2022-08-01T03:18:03;100417.16;;;21.34;64.36
27052;BME280;14601;49.358;8.256;2022-08-01T03:21:06;100421.34;;;21.36;64.22
27052;BME280;14601;49.358;8.256;2022-08-01T03:24:11;100425.28;;;21.34;64.17
27052;BME280;14601;49.358;8.256;2022-08-01T03:27:14;100431.22;;;21.22;64.87
27052;BME280;14601;49.358;8.256;2022-08-01T03:30:17;100426.81;;;21.21;64.95
27052;BME280;14601;49.358;8.256;2022-08-01T03:33:20;100429.50;;;21.15;65.57
27052;BME280;14601;49.358;8.256;2022-08-01T03:36:25;100432.59;;;21.12;65.58
27052;BME280;14601;49.358;8.256;2022-08-01T03:39:31;100431.66;;;21.05;65.87
27052;BME280;14601;49.358;8.256;2022-08-01T03:42:43;100435.22;;;21.05;66.10
27052;BME280;14601;49.358;8.256;2022-08-01T03:45:49;100438.97;;;21.04;66.42
27052;BME280;14601;49.358;8.256;2022-08-01T03:48:55;100436.56;;;20.94;67.00
27052;BME280;14601;49.358;8.256;2022-08-01T03:52:01;100428.47;;;20.80;67.51
27052;BME280;14601;49.358;8.256;2022-08-01T03:55:05;100435.78;;;20.64;68.19
27052;BME280;14601;49.358;8.256;2022-08-01T03:58:09;100437.66;;;20.64;68.18
27052;BME280;14601;49.358;8.256;2022-08-01T04:01:12;100436.53;;;20.43;69.05
27052;BME280;14601;49.358;8.256;2022-08-01T04:04:16;100432.81;;;20.30;69.70
27052;BME280;14601;49.358;8.256;2022-08-01T04:07:23;100432.25;;;20.19;70.15
27052;BME280;14601;49.358;8.256;2022-08-01T04:10:25;100433.53;;;20.09;70.68
27052;BME280;14601;49.358;8.256;2022-08-01T04:13:27;100433.06;;;20.20;70.50
27052;BME280;14601;49.358;8.256;2022-08-01T04:16:29;100439.16;;;20.22;70.39
27052;BME280;14601;49.358;8.256;2022-08-01T04:19:32;100442.63;;;20.16;70.70
27052;BME280;14601;49.358;8.256;2022-08-01T04:22:34;100444.28;;;20.17;70.75
27052;BME280;14601;49.358;8.256;2022-08-01T04:25:37;100443.75;;;20.07;71.11
27052;BME280;14601;49.358;8.256;2022-08-01T04:28:44;100452.44;;;20.02;71.14
27052;BME280;14601;49.358;8.256;2022-08-01T04:31:48;100452.78;;;19.99;71.60
27052;BME280;14601;49.358;8.256;2022-08-01T04:34:53;100457.03;;;20.02;71.48
27052;BME280;14601;49.358;8.256;2022-08-01T04:37:57;100456.16;;;20.16;70.75
27052;BME280;14601;49.358;8.256;2022-08-01T04:41:02;100459.81;;;20.08;71.19
27052;BME280;14601;49.358;8.256;2022-08-01T04:44:07;100467.09;;;20.08;71.34
27052;BME280;14601;49.358;8.256;2022-08-01T04:47:09;100463.94;;;20.19;70.93
27052;BME280;14601;49.358;8.256;2022-08-01T04:50:13;100459.00;;;20.22;70.42
27052;BME280;14601;49.358;8.256;2022-08-01T04:53:15;100467.94;;;20.08;71.12
27052;BME280;14601;49.358;8.256;2022-08-01T04:56:18;100473.31;;;19.79;72.46
27052;BME280;14601;49.358;8.256;2022-08-01T04:59:21;100470.81;;;19.77;72.61
27052;BME280;14601;49.358;8.256;2022-08-01T05:02:41;100472.19;;;19.73;72.86
27052;BME280;14601;49.358;8.256;2022-08-01T05:05:44;100471.25;;;19.66;73.22
27052;BME280;14601;49.358;8.256;2022-08-01T05:08:46;100465.75;;;19.74;72.85
27052;BME280;14601;49.358;8.256;2022-08-01T05:11:48;100460.97;;;19.76;72.93
27052;BME280;14601;49.358;8.256;2022-08-01T05:14:50;100456.59;;;19.75;72.65
27052;BME280;14601;49.358;8.256;2022-08-01T05:17:52;100466.16;;;20.00;71.94
27052;BME280;14601;49.358;8.256;2022-08-01T05:20:55;100466.47;;;20.06;71.82
27052;BME280;14601;49.358;8.256;2022-08-01T05:23:57;100461.56;;;20.01;72.36
27052;BME280;14601;49.358;8.256;2022-08-01T05:26:59;100468.41;;;20.12;71.99
27052;BME280;14601;49.358;8.256;2022-08-01T05:30:01;100460.66;;;20.23;71.59
27052;BME280;14601;49.358;8.256;2022-08-01T05:33:03;100464.50;;;20.44;70.92
27052;BME280;14601;49.358;8.256;2022-08-01T05:36:06;100468.47;;;20.56;70.16
27052;BME280;14601;49.358;8.256;2022-08-01T05:39:08;100466.75;;;20.70;69.77
27052;BME280;14601;49.358;8.256;2022-08-01T05:42:10;100466.72;;;20.85;68.74
27052;BME280;14601;49.358;8.256;2022-08-01T05:45:12;100468.13;;;20.95;68.17
27052;BME280;14601;49.358;8.256;2022-08-01T05:48:14;100472.19;;;21.06;67.82
27052;BME280;14601;49.358;8.256;2022-08-01T05:51:17;100467.78;;;21.20;67.26
27052;BME280;14601;49.358;8.256;2022-08-01T05:54:19;100477.19;;;21.39;66.26
27052;BME280;14601;49.358;8.256;2022-08-01T05:57:20;100474.19;;;21.55;65.34
27052;BME280;14601;49.358;8.256;2022-08-01T06:00:22;100470.75;;;21.89;64.26
27052;BME280;14601;49.358;8.256;2022-08-01T06:03:24;100479.00;;;22.03;63.53
27052;BME280;14601;49.358;8.256;2022-08-01T06:06:27;100480.00;;;22.16;62.54
27052;BME280;14601;49.358;8.256;2022-08-01T06:09:29;100482.56;;;22.31;62.14
27052;BME280;14601;49.358;8.256;2022-08-01T06:12:32;100487.22;;;22.37;61.42
27052;BME280;14601;49.358;8.256;2022-08-01T06:15:34;100495.19;;;22.39;61.61
27052;BME280;14601;49.358;8.256;2022-08-01T06:18:36;100494.75;;;22.35;61.70
27052;BME280;14601;49.358;8.256;2022-08-01T06:21:39;100492.53;;;22.45;60.81
27052;BME280;14601;49.358;8.256;2022-08-01T06:24:41;100493.50;;;22.38;61.39
27052;BME280;14601;49.358;8.256;2022-08-01T06:27:43;100501.25;;;22.76;59.98
27052;BME280;14601;49.358;8.256;2022-08-01T06:30:45;100499.31;;;23.04;58.96
27052;BME280;14601;49.358;8.256;2022-08-01T06:33:46;100496.19;;;22.66;60.57
27052;BME280;14601;49.358;8.256;2022-08-01T06:36:50;100497.19;;;22.93;59.61
27052;BME280;14601;49.358;8.256;2022-08-01T06:39:52;100497.09;;;23.34;58.18
27052;BME280;14601;49.358;8.256;2022-08-01T06:42:54;100506.34;;;22.85;59.76
27052;BME280;14601;49.358;8.256;2022-08-01T06:45:56;100495.13;;;23.02;59.51
27052;BME280;14601;49.358;8.256;2022-08-01T06:48:58;100506.66;;;23.04;59.63
27052;BME280;14601;49.358;8.256;2022-08-01T06:52:03;100499.69;;;23.69;57.41
27052;BME280;14601;49.358;8.256;2022-08-01T06:55:05;100499.53;;;23.90;56.66
27052;BME280;14601;49.358;8.256;2022-08-01T06:58:07;100503.25;;;23.63;57.18
27052;BME280;14601;49.358;8.256;2022-08-01T07:01:12;100504.97;;;24.04;56.24
27052;BME280;14601;49.358;8.256;2022-08-01T07:04:13;100508.00;;;23.41;58.25
27052;BME280;14601;49.358;8.256;2022-08-01T07:07:17;100503.47;;;23.81;56.83
27052;BME280;14601;49.358;8.256;2022-08-01T07:10:18;100500.75;;;24.41;55.34
27052;BME280;14601;49.358;8.256;2022-08-01T07:13:20;100508.09;;;24.47;54.62
27052;BME280;14601;49.358;8.256;2022-08-01T07:16:25;100502.22;;;25.02;52.71
27052;BME280;14601;49.358;8.256;2022-08-01T07:19:27;100494.19;;;25.20;52.47
27052;BME280;14601;49.358;8.256;2022-08-01T07:22:30;100492.25;;;24.69;53.76
27052;BME280;14601;49.358;8.256;2022-08-01T07:25:32;100490.78;;;24.66;54.26
27052;BME280;14601;49.358;8.256;2022-08-01T07:28:34;100486.38;;;27.22;46.44
27052;BME280;14601;49.358;8.256;2022-08-01T07:31:36;100477.56;;;26.28;48.76
27052;BME280;14601;49.358;8.256;2022-08-01T07:34:38;100473.47;;;27.41;45.63
27052;BME280;14601;49.358;8.256;2022-08-01T07:37:50;100482.59;;;28.94;42.13
27052;BME280;14601;49.358;8.256;2022-08-01T07:40:53;100460.25;;;34.49;30.96
27052;BME280;14601;49.358;8.256;2022-08-01T07:43:55;100469.06;;;31.76;35.63
27052;BME280;14601;49.358;8.256;2022-08-01T07:46:57;100478.50;;;30.55;37.08
27052;BME280;14601;49.358;8.256;2022-08-01T07:49:59;100467.69;;;33.11;33.77
27052;BME280;14601;49.358;8.256;2022-08-01T07:53:03;100458.88;;;37.99;25.90
27052;BME280;14601;49.358;8.256;2022-08-01T07:56:05;100455.03;;;37.25;25.53
27052;BME280;14601;49.358;8.256;2022-08-01T07:59:07;100462.19;;;37.69;24.80
27052;BME280;14601;49.358;8.256;2022-08-01T08:02:09;100463.81;;;36.51;26.93
27052;BME280;14601;49.358;8.256;2022-08-01T08:05:12;100464.63;;;37.56;25.18
27052;BME280;14601;49.358;8.256;2022-08-01T08:08:15;100459.25;;;39.67;23.15
27052;BME280;14601;49.358;8.256;2022-08-01T08:11:18;100461.19;;;42.33;19.46
27052;BME280;14601;49.358;8.256;2022-08-01T08:14:20;100466.84;;;42.63;19.25
27052;BME280;14601;49.358;8.256;2022-08-01T08:17:23;100461.28;;;40.77;19.99
27052;BME280;14601;49.358;8.256;2022-08-01T08:20:25;100470.88;;;37.81;23.53
27052;BME280;14601;49.358;8.256;2022-08-01T08:23:29;100473.56;;;35.17;27.14
27052;BME280;14601;49.358;8.256;2022-08-01T08:26:51;100465.22;;;32.52;31.45
27052;BME280;14601;49.358;8.256;2022-08-01T08:29:54;100475.69;;;31.43;33.92
27052;BME280;14601;49.358;8.256;2022-08-01T08:32:56;100476.47;;;30.67;35.60
27052;BME280;14601;49.358;8.256;2022-08-01T08:35:58;100473.69;;;30.67;35.67
27052;BME280;14601;49.358;8.256;2022-08-01T08:39:02;100477.28;;;30.12;36.96
27052;BME280;14601;49.358;8.256;2022-08-01T08:42:07;100465.00;;;29.07;39.10
27052;BME280;14601;49.358;8.256;2022-08-01T08:45:10;100466.25;;;29.16;39.36
27052;BME280;14601;49.358;8.256;2022-08-01T08:48:12;100462.72;;;28.52;40.64
27052;BME280;14601;49.358;8.256;2022-08-01T08:51:16;100473.25;;;27.84;42.25
27052;BME280;14601;49.358;8.256;2022-08-01T08:54:22;100454.69;;;28.74;40.47
27052;BME280;14601;49.358;8.256;2022-08-01T08:57:25;100457.44;;;28.62;40.93
27052;BME280;14601;49.358;8.256;2022-08-01T09:00:28;100467.22;;;27.64;43.81
27052;BME280;14601;49.358;8.256;2022-08-01T09:03:29;100468.94;;;27.89;43.25
27052;BME280;14601;49.358;8.256;2022-08-01T09:06:32;100476.59;;;28.33;41.80
27052;BME280;14601;49.358;8.256;2022-08-01T09:09:35;100464.19;;;27.96;42.38
27052;BME280;14601;49.358;8.256;2022-08-01T09:12:37;100465.53;;;27.51;44.01
27052;BME280;14601;49.358;8.256;2022-08-01T09:15:41;100473.25;;;27.54;43.98
27052;BME280;14601;49.358;8.256;2022-08-01T09:18:43;100467.84;;;28.60;41.28
27052;BME280;14601;49.358;8.256;2022-08-01T09:21:56;100473.50;;;29.05;40.74
27052;BME280;14601;49.358;8.256;2022-08-01T09:25:03;100466.75;;;28.73;41.52
27052;BME280;14601;49.358;8.256;2022-08-01T09:28:07;100473.00;;;31.48;36.19
27052;BME280;14601;49.358;8.256;2022-08-01T09:31:10;100473.72;;;31.38;35.34
27052;BME280;14601;49.358;8.256;2022-08-01T09:34:13;100483.22;;;31.25;36.34
27052;BME280;14601;49.358;8.256;2022-08-01T09:37:15;100479.50;;;30.88;36.81
27052;BME280;14601;49.358;8.256;2022-08-01T09:40:19;100482.53;;;28.77;40.32
27052;BME280;14601;49.358;8.256;2022-08-01T09:43:23;100489.38;;;30.45;37.90
27052;BME280;14601;49.358;8.256;2022-08-01T09:46:26;100483.25;;;29.42;39.14
27052;BME280;14601;49.358;8.256;2022-08-01T09:49:30;100480.03;;;29.33;39.44
27052;BME280;14601;49.358;8.256;2022-08-01T09:52:32;100489.84;;;29.12;39.74
27052;BME280;14601;49.358;8.256;2022-08-01T09:55:36;100479.19;;;29.16;40.15
27052;BME280;14601;49.358;8.256;2022-08-01T09:58:49;100490.44;;;29.14;40.23
27052;BME280;14601;49.358;8.256;2022-08-01T10:01:51;100488.19;;;30.19;38.03
27052;BME280;14601;49.358;8.256;2022-08-01T10:04:53;100482.97;;;30.61;37.23
27052;BME280;14601;49.358;8.256;2022-08-01T10:07:56;100481.28;;;30.38;37.92
27052;BME280;14601;49.358;8.256;2022-08-01T10:11:07;100480.53;;;30.43;37.57
27052;BME280;14601;49.358;8.256;2022-08-01T10:14:09;100474.94;;;31.25;36.26
27052;BME280;14601;49.358;8.256;2022-08-01T10:17:17;100473.03;;;33.58;32.36
27052;BME280;14601;49.358;8.256;2022-08-01T10:20:21;100463.91;;;32.64;32.92
27052;BME280;14601;49.358;8.256;2022-08-01T10:23:24;100466.97;;;33.97;30.80
27052;BME280;14601;49.358;8.256;2022-08-01T10:26:32;100471.06;;;34.35;30.43
27052;BME280;14601;49.358;8.256;2022-08-01T10:29:37;100467.78;;;33.62;31.85
27052;BME280;14601;49.358;8.256;2022-08-01T10:32:41;100457.63;;;31.57;35.03
27052;BME280;14601;49.358;8.256;2022-08-01T10:35:45;100458.72;;;30.80;36.39
27052;BME280;14601;49.358;8.256;2022-08-01T10:38:47;100460.94;;;31.05;36.28
27052;BME280;14601;49.358;8.256;2022-08-01T10:41:51;100458.25;;;31.15;35.50
27052;BME280;14601;49.358;8.256;2022-08-01T10:44:53;100466.66;;;31.25;35.93
27052;BME280;14601;49.358;8.256;2022-08-01T10:48:00;100457.47;;;31.42;35.35
27052;BME280;14601;49.358;8.256;2022-08-01T10:51:04;100459.38;;;31.68;34.48
27052;BME280;14601;49.358;8.256;2022-08-01T10:54:08;100445.91;;;31.45;35.22
27052;BME280;14601;49.358;8.256;2022-08-01T10:57:13;100453.16;;;30.36;36.80
27052;BME280;14601;49.358;8.256;2022-08-01T11:00:18;100456.69;;;30.15;37.55
27052;BME280;14601;49.358;8.256;2022-08-01T11:03:32;100456.13;;;29.62;38.68
27052;BME280;14601;49.358;8.256;2022-08-01T11:06:48;100455.09;;;30.58;36.59
27052;BME280;14601;49.358;8.256;2022-08-01T11:10:03;100457.03;;;29.85;38.02
27052;BME280;14601;49.358;8.256;2022-08-01T11:13:07;100453.56;;;27.88;42.02
27052;BME280;14601;49.358;8.256;2022-08-01T11:16:27;100456.50;;;27.02;44.58
27052;BME280;14601;49.358;8.256;2022-08-01T11:20:06;100441.31;;;29.06;39.91
27052;BME280;14601;49.358;8.256;2022-08-01T11:23:18;100438.50;;;29.63;38.21
27052;BME280;14601;49.358;8.256;2022-08-01T11:26:21;100435.41;;;30.27;36.95
27052;BME280;14601;49.358;8.256;2022-08-01T11:29:25;100432.69;;;30.98;35.10
27052;BME280;14601;49.358;8.256;2022-08-01T11:32:27;100425.03;;;31.91;33.76
27052;BME280;14601;49.358;8.256;2022-08-01T11:35:29;100420.84;;;31.24;34.64
27052;BME280;14601;49.358;8.256;2022-08-01T11:38:31;100414.53;;;31.56;33.98
27052;BME280;14601;49.358;8.256;2022-08-01T11:41:35;100420.53;;;30.11;36.72
27052;BME280;14601;49.358;8.256;2022-08-01T11:44:49;100412.75;;;29.41;38.31
27052;BME280;14601;49.358;8.256;2022-08-01T11:47:51;100419.28;;;29.51;37.98
27052;BME280;14601;49.358;8.256;2022-08-01T11:50:54;100414.19;;;30.27;36.59
27052;BME280;14601;49.358;8.256;2022-08-01T11:53:57;100412.44;;;30.65;36.07
27052;BME280;14601;49.358;8.256;2022-08-01T11:57:03;100410.47;;;30.39;36.50
27052;BME280;14601;49.358;8.256;2022-08-01T12:00:11;100413.19;;;30.00;38.02
27052;BME280;14601;49.358;8.256;2022-08-01T12:03:13;100406.50;;;30.13;38.22
27052;BME280;14601;49.358;8.256;2022-08-01T12:06:26;100406.75;;;30.28;37.60
27052;BME280;14601;49.358;8.256;2022-08-01T12:09:28;100409.22;;;29.91;37.77
27052;BME280;14601;49.358;8.256;2022-08-01T12:12:31;100411.34;;;30.22;37.07
27052;BME280;14601;49.358;8.256;2022-08-01T12:15:36;100409.16;;;30.24;37.30
27052;BME280;14601;49.358;8.256;2022-08-01T12:18:40;100414.63;;;29.52;37.87
27052;BME280;14601;49.358;8.256;2022-08-01T12:21:42;100408.91;;;29.70;37.47
27052;BME280;14601;49.358;8.256;2022-08-01T12:24:43;100399.75;;;30.42;36.16
27052;BME280;14601;49.358;8.256;2022-08-01T12:27:46;100396.75;;;30.44;35.53
27052;BME280;14601;49.358;8.256;2022-08-01T12:30:50;100397.00;;;30.03;36.22
27052;BME280;14601;49.358;8.256;2022-08-01T12:33:51;100396.38;;;29.79;37.15
27052;BME280;14601;49.358;8.256;2022-08-01T12:36:54;100391.34;;;29.43;38.17
27052;BME280;14601;49.358;8.256;2022-08-01T12:39:56;100388.56;;;29.93;37.84
27052;BME280;14601;49.358;8.256;2022-08-01T12:43:00;100397.31;;;29.06;38.41
27052;BME280;14601;49.358;8.256;2022-08-01T12:46:04;100390.53;;;29.42;38.03
27052;BME280;14601;49.358;8.256;2022-08-01T12:49:06;100398.66;;;29.20;38.56
27052;BME280;14601;49.358;8.256;2022-08-01T12:52:10;100396.09;;;29.47;37.95
27052;BME280;14601;49.358;8.256;2022-08-01T12:55:14;100400.13;;;29.56;38.14
27052;BME280;14601;49.358;8.256;2022-08-01T12:58:17;100402.34;;;30.10;36.97
27052;BME280;14601;49.358;8.256;2022-08-01T13:01:25;100396.53;;;30.72;35.93
27052;BME280;14601;49.358;8.256;2022-08-01T13:04:27;100393.91;;;30.83;35.61
27052;BME280;14601;49.358;8.256;2022-08-01T13:07:36;100387.66;;;31.19;34.94
27052;BME280;14601;49.358;8.256;2022-08-01T13:10:39;100389.78;;;31.39;34.05
27052;BME280;14601;49.358;8.256;2022-08-01T13:13:42;100382.31;;;31.35;34.52
27052;BME280;14601;49.358;8.256;2022-08-01T13:16:48;100393.16;;;30.43;35.75
27052;BME280;14601;49.358;8.256;2022-08-01T13:19:50;100391.63;;;30.74;34.58
27052;BME280;14601;49.358;8.256;2022-08-01T13:22:53;100379.38;;;30.43;33.66
27052;BME280;14601;49.358;8.256;2022-08-01T13:25:55;100394.72;;;30.17;33.89
27052;BME280;14601;49.358;8.256;2022-08-01T13:29:04;100371.44;;;30.08;33.24
27052;BME280;14601;49.358;8.256;2022-08-01T13:32:16;100376.94;;;29.69;33.81
27052;BME280;14601;49.358;8.256;2022-08-01T13:35:20;100380.69;;;29.29;34.57
27052;BME280;14601;49.358;8.256;2022-08-01T13:38:23;100377.97;;;29.01;35.71
27052;BME280;14601;49.358;8.256;2022-08-01T13:41:38;100381.84;;;29.34;35.27
27052;BME280;14601;49.358;8.256;2022-08-01T13:44:41;100371.63;;;29.63;34.18
27052;BME280;14601;49.358;8.256;2022-08-01T13:47:47;100376.59;;;30.21;33.67
27052;BME280;14601;49.358;8.256;2022-08-01T13:50:49;100371.75;;;29.22;35.22
27052;BME280;14601;49.358;8.256;2022-08-01T13:53:51;100371.81;;;29.27;35.18
27052;BME280;14601;49.358;8.256;2022-08-01T13:56:53;100372.97;;;30.16;33.54
27052;BME280;14601;49.358;8.256;2022-08-01T13:59:55;100362.22;;;29.80;33.89
27052;BME280;14601;49.358;8.256;2022-08-01T14:03:01;100365.75;;;29.76;34.22
27052;BME280;14601;49.358;8.256;2022-08-01T14:06:03;100363.44;;;30.07;33.22
27052;BME280;14601;49.358;8.256;2022-08-01T14:09:07;100369.38;;;30.59;32.88
27052;BME280;14601;49.358;8.256;2022-08-01T14:12:10;100356.28;;;30.49;32.78
27052;BME280;14601;49.358;8.256;2022-08-01T14:15:12;100359.22;;;29.31;34.29
27052;BME280;14601;49.358;8.256;2022-08-01T14:18:15;100356.88;;;29.06;34.96
27052;BME280;14601;49.358;8.256;2022-08-01T14:21:18;100354.28;;;29.17;35.26
27052;BME280;14601;49.358;8.256;2022-08-01T14:24:20;100350.31;;;29.24;35.34
27052;BME280;14601;49.358;8.256;2022-08-01T14:27:23;100342.47;;;29.50;34.63
27052;BME280;14601;49.358;8.256;2022-08-01T14:30:25;100349.59;;;30.18;33.32
27052;BME280;14601;49.358;8.256;2022-08-01T14:33:28;100354.81;;;29.47;35.18
27052;BME280;14601;49.358;8.256;2022-08-01T14:36:32;100359.97;;;29.77;35.32
27052;BME280;14601;49.358;8.256;2022-08-01T14:39:34;100368.50;;;28.68;37.49
27052;BME280;14601;49.358;8.256;2022-08-01T14:42:37;100362.53;;;28.71;37.66
27052;BME280;14601;49.358;8.256;2022-08-01T14:45:40;100363.31;;;28.55;38.08
27052;BME280;14601;49.358;8.256;2022-08-01T14:48:43;100357.47;;;28.80;37.59
27052;BME280;14601;49.358;8.256;2022-08-01T14:51:47;100365.66;;;28.11;38.43
27052;BME280;14601;49.358;8.256;2022-08-01T14:54:50;100364.94;;;28.16;38.97
27052;BME280;14601;49.358;8.256;2022-08-01T14:57:55;100371.63;;;27.73;39.38
27052;BME280;14601;49.358;8.256;2022-08-01T15:00:57;100367.47;;;27.82;38.94
27052;BME280;14601;49.358;8.256;2022-08-01T15:04:00;100371.88;;;27.83;39.14
27052;BME280;14601;49.358;8.256;2022-08-01T15:07:02;100359.97;;;28.53;37.47
27052;BME280;14601;49.358;8.256;2022-08-01T15:10:05;100371.34;;;28.33;38.03
27052;BME280;14601;49.358;8.256;2022-08-01T15:13:09;100369.28;;;28.52;37.74
27052;BME280;14601;49.358;8.256;2022-08-01T15:16:11;100361.81;;;28.24;38.29
27052;BME280;14601;49.358;8.256;2022-08-01T15:19:14;100366.81;;;28.39;37.95
27052;BME280;14601;49.358;8.256;2022-08-01T15:22:16;100361.59;;;28.66;37.44
27052;BME280;14601;49.358;8.256;2022-08-01T15:25:18;100366.47;;;28.23;38.37
27052;BME280;14601;49.358;8.256;2022-08-01T15:28:20;100371.06;;;27.82;39.16
27052;BME280;14601;49.358;8.256;2022-08-01T15:31:23;100362.03;;;28.22;38.57
27052;BME280;14601;49.358;8.256;2022-08-01T15:34:26;100360.03;;;27.71;39.47
27052;BME280;14601;49.358;8.256;2022-08-01T15:37:28;100366.84;;;27.68;40.10
27052;BME280;14601;49.358;8.256;2022-08-01T15:40:30;100359.00;;;27.72;39.86
27052;BME280;14601;49.358;8.256;2022-08-01T15:43:34;100360.31;;;27.93;39.55
27052;BME280;14601;49.358;8.256;2022-08-01T15:46:36;100359.47;;;28.04;39.23
27052;BME280;14601;49.358;8.256;2022-08-01T15:49:39;100362.56;;;27.72;39.90
27052;BME280;14601;49.358;8.256;2022-08-01T15:52:41;100361.72;;;27.48;40.01
27052;BME280;14601;49.358;8.256;2022-08-01T15:55:43;100366.00;;;27.32;40.71
27052;BME280;14601;49.358;8.256;2022-08-01T15:58:45;100363.84;;;27.58;40.04
27052;BME280;14601;49.358;8.256;2022-08-01T16:01:47;100361.91;;;27.23;40.19